Terminal Aerodrome Forecast
Issued by NWS

Home | Current Version | Previous Version | Graphics & Text | Print | Product List | Glossary On
Versions: 1 2 3 4 5 6 7 8 9 10 11 12 13 14 15 16 17 18 19
000
FTUS43 KIWX 271100
TAFSBN
TAF
KSBN 271129Z 2712/2812 28006KT 5SM -SN BR BKN025
      TEMPO 2712/2713 2SM -SN BR BKN017
     FM271300 29008KT P6SM -SHSN BKN025
     FM271700 30013KT 2SM -SHSN OVC020
      TEMPO 2719/2723 1SM -SHSN BR BKN012
     FM272300 30008KT 4SM -SHSN BKN035
     FM280500 24003KT P6SM BKN050=

USA.gov is the U.S. government's official web portal to all federal, state and local government web resources and services.